Rosa Maersk — OVST2 — position and weather

sailwx.info

Track history (hours):
 
Tides and Currents Weather Stations Pressure Air Temp Water Temp Dewpoint Dewpoint Depression Visibility Wind Speed Wind Dir Waves Ship Positions

Rosa Maersk

Last reported at 2014-Sep-23 11:33 UTC. Time now 2014-Sep-23 12:22 UTC.
Position N 51°50' W 008°16'.

Length 172 m; draft 7.4 m.

Type: Tanker. MMSI: 220288000.

Date/timePositionNaut miles runAvg speedWind from/ knotsBaromVisibWave heightAir tempDewpointWater temp
2014-Sep-23 11:33N 51°50' W 008°16'0 0.0
2014-Sep-23 10:33N 51°50' W 008°16'0 0.0
2014-Sep-23 09:33N 51°50' W 008°16'0 0.0
2014-Sep-23 08:33N 51°50' W 008°16'0 0.0
2014-Sep-23 07:33N 51°50' W 008°16'0 0.0
2014-Sep-23 06:33N 51°50' W 008°16'0 0.0
2014-Sep-23 05:33N 51°50' W 008°16'0 0.0
2014-Sep-23 04:33N 51°50' W 008°16'0 0.0
2014-Sep-23 03:33N 51°50' W 008°16'0 0.0
2014-Sep-23 02:33N 51°50' W 008°16'0 0.0
2014-Sep-23 01:33N 51°50' W 008°16'0 0.0
2014-Sep-23 00:33N 51°50' W 008°16'0 0.0
2014-Sep-22 23:33N 51°50' W 008°16'0 0.0
2014-Sep-22 22:33N 51°50' W 008°16'0 0.0
2014-Sep-22 21:33N 51°50' W 008°16'0 0.0
2014-Sep-22 20:33N 51°50' W 008°16'0 0.0
2014-Sep-22 19:33N 51°50' W 008°16'0 0.0
2014-Sep-22 18:33N 51°50' W 008°16'1 1.0
2014-Sep-22 17:33N 51°49' W 008°16'6 6.3
2014-Sep-22 16:33N 51°44' W 008°10'1 0.9
2014-Sep-22 15:33N 51°43' W 008°10'1 1.3
2014-Sep-22 14:33N 51°45' W 008°10'3 2.9
2014-Sep-22 13:33N 51°42' W 008°07'9 9.1
2014-Sep-22 12:33N 51°35' W 007°58'1312.7
2014-Sep-22 11:33N 51°26' W 007°44'1812.9
2014-Sep-22 10:09N 51°14' W 007°23'812.9
2014-Sep-22 09:32N 51°08' W 007°14'1211.0
2014-Sep-22 08:26N 50°60' W 006°60'218 7.7
2014-Sep-21 04:18N 50°17' W 001°23'36 9.6
2014-Sep-21 00:33N 50°26' W 000°29'1110.1
2014-Sep-20 23:29N 50°29' W 000°12'18 9.4
2014-Sep-20 21:33N 50°34' E 000°15'8 8.4
2014-Sep-20 20:33N 50°36' E 000°28'8 7.6
2014-Sep-20 19:33N 50°39' E 000°39'10 7.9
2014-Sep-20 18:19N 50°45' E 000°51'7 8.5
2014-Sep-20 17:33N 50°49' E 000°59'20 9.9
2014-Sep-20 15:33N 51°02' E 001°23'10 9.8
2014-Sep-20 14:33N 51°08' E 001°35'9 8.7
2014-Sep-20 13:33N 51°14' E 001°45'8 7.9
2014-Sep-20 12:33N 51°21' E 001°52'10 9.9
2014-Sep-20 11:34N 51°30' E 001°60'1312.7
2014-Sep-20 10:33N 51°39' E 002°14'1313.1
2014-Sep-20 09:33N 51°49' E 002°28'3611.7
2014-Sep-20 06:29N 52°03' E 003°21'10 8.9
2014-Sep-20 05:25N 52°03' E 003°37'8 8.7
2014-Sep-20 04:33N 52°03' E 003°49'9 8.7
2014-Sep-20 03:34N 51°60' E 004°02'1110.9
2014-Sep-20 02:33N 51°54' E 004°17'3 2.9
2014-Sep-20 01:31N 51°54' E 004°22'0 0.0
2014-Sep-20 00:31N 51°54' E 004°22'0 0.0
2014-Sep-19 23:31N 51°54' E 004°22'0 0.0
2014-Sep-19 22:31N 51°54' E 004°22'0 0.0
2014-Sep-19 21:25N 51°54' E 004°22'0 0.0
2014-Sep-19 20:25N 51°54' E 004°22'0 0.0
2014-Sep-19 19:31N 51°54' E 004°22'0 0.0
2014-Sep-19 18:31N 51°54' E 004°22'0 0.0
2014-Sep-19 17:22N 51°54' E 004°22'0 0.0
2014-Sep-19 16:31N 51°54' E 004°22'0 0.0
2014-Sep-19 15:31N 51°54' E 004°22'0 0.0
2014-Sep-19 14:31N 51°54' E 004°22'0 0.0
2014-Sep-19 13:31N 51°54' E 004°22'0 0.0
2014-Sep-19 12:25N 51°54' E 004°22'0 0.0
2014-Sep-19 10:31N 51°54' E 004°22'0 0.0
2014-Sep-19 09:31N 51°54' E 004°22'0 0.0
2014-Sep-19 08:19N 51°54' E 004°22'0 0.0
2014-Sep-19 07:31N 51°54' E 004°22'0 0.0
2014-Sep-19 06:25N 51°54' E 004°22'0 0.0
2014-Sep-19 05:31N 51°54' E 004°22'0 0.2
2014-Sep-19 04:33N 51°54' E 004°22'5 4.5
2014-Sep-19 03:33N 51°55' E 004°15'10 9.6
2014-Sep-19 02:33N 51°60' E 004°02'8 8.0
2014-Sep-19 01:33N 51°55' E 004°13'0 0.3
2014-Sep-19 00:15N 51°55' E 004°13'0 0.0
2014-Sep-18 23:33N 51°55' E 004°13'0 0.0
2014-Sep-18 22:30N 51°55' E 004°13'0 0.0
2014-Sep-18 21:24N 51°55' E 004°13'0 0.0
2014-Sep-18 20:27N 51°55' E 004°13'0 0.0
2014-Sep-18 18:18N 51°55' E 004°13'0 0.0
2014-Sep-18 17:18N 51°55' E 004°13'0 0.0
2014-Sep-18 16:24N 51°55' E 004°13'0 0.0
2014-Sep-18 13:32N 51°55' E 004°13'0 0.0
2014-Sep-18 12:14N 51°55' E 004°13'0 0.0
2014-Sep-18 11:32N 51°55' E 004°13'0 0.0
2014-Sep-18 10:29N 51°55' E 004°13'0 0.0
2014-Sep-18 09:14N 51°55' E 004°13'0 0.0
2014-Sep-18 08:17N 51°55' E 004°13'0 0.0
2014-Sep-18 07:26N 51°55' E 004°13'0 0.0
2014-Sep-18 06:26N 51°55' E 004°13'0 0.0
2014-Sep-18 05:26N 51°55' E 004°13'0 0.0
2014-Sep-18 04:32N 51°55' E 004°13'0 0.0
2014-Sep-18 01:23N 51°55' E 004°13'0 0.0
2014-Sep-18 00:29N 51°55' E 004°13'0 0.0
2014-Sep-17 23:14N 51°55' E 004°13'0 0.0
2014-Sep-17 22:05N 51°55' E 004°13'0 0.0
2014-Sep-17 21:04N 51°55' E 004°13'0 0.6
2014-Sep-17 20:33N 51°55' E 004°13'6 6.3
2014-Sep-17 19:33N 51°59' E 004°04'1110.6
2014-Sep-17 18:33N 52°01' E 003°47'2210.6
2014-Sep-17 16:29N 52°12' E 003°17'12711.4
2014-Sep-17 05:20N 54°13' E 004°26'34311.7
2014-Sep-16 00:03N 58°54' E 010°24'611.5
2014-Sep-15 23:33N 58°58' E 010°31'1110.9
2014-Sep-15 22:33N 59°08' E 010°37'1111.1
2014-Sep-15 21:33N 59°19' E 010°32'1 0.1
2014-Sep-15 14:28N 59°20' E 010°31'0 0.0
2014-Sep-15 09:32N 59°20' E 010°31'0 0.0
2014-Sep-15 08:33N 59°20' E 010°31'0 0.0
2014-Sep-15 07:33N 59°20' E 010°31'0 0.0
2014-Sep-15 06:33N 59°20' E 010°31'0 0.0
2014-Sep-15 05:33N 59°20' E 010°31'0 0.0
2014-Sep-15 04:33N 59°20' E 010°31'0 0.0
2014-Sep-15 03:23N 59°20' E 010°31'0 0.0
2014-Sep-15 02:32N 59°20' E 010°31'0 0.0
2014-Sep-15 01:33N 59°20' E 010°31'0 0.0
2014-Sep-15 00:33N 59°20' E 010°31'0 0.0
2014-Sep-14 23:33N 59°20' E 010°31'1 0.7
2014-Sep-14 22:27N 59°20' E 010°31'0 0.1
2014-Sep-14 21:33N 59°20' E 010°31'0 0.0
2014-Sep-14 20:33N 59°20' E 010°31'0 0.0
2014-Sep-14 19:33N 59°20' E 010°31'0 0.0
2014-Sep-14 18:33N 59°20' E 010°31'0 0.0
2014-Sep-14 17:33N 59°20' E 010°31'0 0.1
2014-Sep-14 16:33N 59°20' E 010°31'0 0.0
2014-Sep-14 13:33N 59°20' E 010°31'0 0.0
2014-Sep-14 12:30N 59°20' E 010°31'0 0.0
2014-Sep-14 11:32N 59°20' E 010°31'0 0.0
2014-Sep-14 10:32N 59°20' E 010°31'0 0.0
2014-Sep-14 09:29N 59°20' E 010°31'0 0.0
2014-Sep-14 08:23N 59°20' E 010°31'0 0.0
2014-Sep-14 07:32N 59°20' E 010°31'0 0.0
2014-Sep-14 06:32N 59°20' E 010°31'0 0.0
2014-Sep-14 05:29N 59°20' E 010°31'0 0.0
2014-Sep-14 04:26N 59°20' E 010°31'0 0.0
2014-Sep-14 03:29N 59°20' E 010°31'0 0.0
2014-Sep-14 02:23N 59°20' E 010°31'0 0.0
2014-Sep-14 01:17N 59°20' E 010°31'0 0.0
2014-Sep-13 21:32N 59°20' E 010°31'0 0.0
2014-Sep-13 20:32N 59°20' E 010°31'0 0.0
2014-Sep-13 19:26N 59°20' E 010°31'0 0.0
2014-Sep-13 18:32N 59°20' E 010°31'0 0.0
2014-Sep-13 17:32N 59°20' E 010°31'0 0.0
2014-Sep-13 16:23N 59°20' E 010°31'0 0.1
2014-Sep-13 15:29N 59°20' E 010°31'0 0.0
2014-Sep-13 12:23N 59°20' E 010°31'  
Track history (hours):
 
Tides and Currents Weather Stations Pressure Air Temp Water Temp Dewpoint Dewpoint Depression Visibility Wind Speed Wind Dir Waves Ship Positions

Rosa Maersk

Last reported at 2014-Sep-23 11:33 UTC. Time now 2014-Sep-23 12:22 UTC.
Position N 51°50' W 008°16'.

Length 172 m; draft 7.4 m.

Type: Tanker. MMSI: 220288000.

Date/timePositionNaut miles runAvg speedWind from/ knotsBaromVisibWave heightAir tempDewpointWater temp
2014-Sep-23 11:33N 51°50' W 008°16'0 0.0
2014-Sep-23 10:33N 51°50' W 008°16'0 0.0
2014-Sep-23 09:33N 51°50' W 008°16'0 0.0
2014-Sep-23 08:33N 51°50' W 008°16'0 0.0
2014-Sep-23 07:33N 51°50' W 008°16'0 0.0
2014-Sep-23 06:33N 51°50' W 008°16'0 0.0
2014-Sep-23 05:33N 51°50' W 008°16'0 0.0
2014-Sep-23 04:33N 51°50' W 008°16'0 0.0
2014-Sep-23 03:33N 51°50' W 008°16'0 0.0
2014-Sep-23 02:33N 51°50' W 008°16'0 0.0
2014-Sep-23 01:33N 51°50' W 008°16'0 0.0
2014-Sep-23 00:33N 51°50' W 008°16'0 0.0
2014-Sep-22 23:33N 51°50' W 008°16'0 0.0
2014-Sep-22 22:33N 51°50' W 008°16'0 0.0
2014-Sep-22 21:33N 51°50' W 008°16'0 0.0
2014-Sep-22 20:33N 51°50' W 008°16'0 0.0
2014-Sep-22 19:33N 51°50' W 008°16'0 0.0
2014-Sep-22 18:33N 51°50' W 008°16'1 1.0
2014-Sep-22 17:33N 51°49' W 008°16'6 6.3
2014-Sep-22 16:33N 51°44' W 008°10'1 0.9
2014-Sep-22 15:33N 51°43' W 008°10'1 1.3
2014-Sep-22 14:33N 51°45' W 008°10'3 2.9
2014-Sep-22 13:33N 51°42' W 008°07'9 9.1
2014-Sep-22 12:33N 51°35' W 007°58'1312.7
2014-Sep-22 11:33N 51°26' W 007°44'1812.9
2014-Sep-22 10:09N 51°14' W 007°23'812.9
2014-Sep-22 09:32N 51°08' W 007°14'1211.0
2014-Sep-22 08:26N 50°60' W 006°60'218 7.7
2014-Sep-21 04:18N 50°17' W 001°23'36 9.6
2014-Sep-21 00:33N 50°26' W 000°29'1110.1
2014-Sep-20 23:29N 50°29' W 000°12'18 9.4
2014-Sep-20 21:33N 50°34' E 000°15'8 8.4
2014-Sep-20 20:33N 50°36' E 000°28'8 7.6
2014-Sep-20 19:33N 50°39' E 000°39'10 7.9
2014-Sep-20 18:19N 50°45' E 000°51'7 8.5
2014-Sep-20 17:33N 50°49' E 000°59'20 9.9
2014-Sep-20 15:33N 51°02' E 001°23'10 9.8
2014-Sep-20 14:33N 51°08' E 001°35'9 8.7
2014-Sep-20 13:33N 51°14' E 001°45'8 7.9
2014-Sep-20 12:33N 51°21' E 001°52'10 9.9
2014-Sep-20 11:34N 51°30' E 001°60'1312.7
2014-Sep-20 10:33N 51°39' E 002°14'1313.1
2014-Sep-20 09:33N 51°49' E 002°28'3611.7
2014-Sep-20 06:29N 52°03' E 003°21'10 8.9
2014-Sep-20 05:25N 52°03' E 003°37'8 8.7
2014-Sep-20 04:33N 52°03' E 003°49'9 8.7
2014-Sep-20 03:34N 51°60' E 004°02'1110.9
2014-Sep-20 02:33N 51°54' E 004°17'3 2.9
2014-Sep-20 01:31N 51°54' E 004°22'0 0.0
2014-Sep-20 00:31N 51°54' E 004°22'0 0.0
2014-Sep-19 23:31N 51°54' E 004°22'0 0.0
2014-Sep-19 22:31N 51°54' E 004°22'0 0.0
2014-Sep-19 21:25N 51°54' E 004°22'0 0.0
2014-Sep-19 20:25N 51°54' E 004°22'0 0.0
2014-Sep-19 19:31N 51°54' E 004°22'0 0.0
2014-Sep-19 18:31N 51°54' E 004°22'0 0.0
2014-Sep-19 17:22N 51°54' E 004°22'0 0.0
2014-Sep-19 16:31N 51°54' E 004°22'0 0.0
2014-Sep-19 15:31N 51°54' E 004°22'0 0.0
2014-Sep-19 14:31N 51°54' E 004°22'0 0.0
2014-Sep-19 13:31N 51°54' E 004°22'0 0.0
2014-Sep-19 12:25N 51°54' E 004°22'0 0.0
2014-Sep-19 10:31N 51°54' E 004°22'0 0.0
2014-Sep-19 09:31N 51°54' E 004°22'0 0.0
2014-Sep-19 08:19N 51°54' E 004°22'0 0.0
2014-Sep-19 07:31N 51°54' E 004°22'0 0.0
2014-Sep-19 06:25N 51°54' E 004°22'0 0.0
2014-Sep-19 05:31N 51°54' E 004°22'0 0.2
2014-Sep-19 04:33N 51°54' E 004°22'5 4.5
2014-Sep-19 03:33N 51°55' E 004°15'10 9.6
2014-Sep-19 02:33N 51°60' E 004°02'8 8.0
2014-Sep-19 01:33N 51°55' E 004°13'0 0.3
2014-Sep-19 00:15N 51°55' E 004°13'0 0.0
2014-Sep-18 23:33N 51°55' E 004°13'0 0.0
2014-Sep-18 22:30N 51°55' E 004°13'0 0.0
2014-Sep-18 21:24N 51°55' E 004°13'0 0.0
2014-Sep-18 20:27N 51°55' E 004°13'0 0.0
2014-Sep-18 18:18N 51°55' E 004°13'0 0.0
2014-Sep-18 17:18N 51°55' E 004°13'0 0.0
2014-Sep-18 16:24N 51°55' E 004°13'0 0.0
2014-Sep-18 13:32N 51°55' E 004°13'0 0.0
2014-Sep-18 12:14N 51°55' E 004°13'0 0.0
2014-Sep-18 11:32N 51°55' E 004°13'0 0.0
2014-Sep-18 10:29N 51°55' E 004°13'0 0.0
2014-Sep-18 09:14N 51°55' E 004°13'0 0.0
2014-Sep-18 08:17N 51°55' E 004°13'0 0.0
2014-Sep-18 07:26N 51°55' E 004°13'0 0.0
2014-Sep-18 06:26N 51°55' E 004°13'0 0.0
2014-Sep-18 05:26N 51°55' E 004°13'0 0.0
2014-Sep-18 04:32N 51°55' E 004°13'0 0.0
2014-Sep-18 01:23N 51°55' E 004°13'0 0.0
2014-Sep-18 00:29N 51°55' E 004°13'0 0.0
2014-Sep-17 23:14N 51°55' E 004°13'0 0.0
2014-Sep-17 22:05N 51°55' E 004°13'0 0.0
2014-Sep-17 21:04N 51°55' E 004°13'0 0.6
2014-Sep-17 20:33N 51°55' E 004°13'6 6.3
2014-Sep-17 19:33N 51°59' E 004°04'1110.6
2014-Sep-17 18:33N 52°01' E 003°47'2210.6
2014-Sep-17 16:29N 52°12' E 003°17'12711.4
2014-Sep-17 05:20N 54°13' E 004°26'34311.7
2014-Sep-16 00:03N 58°54' E 010°24'611.5
2014-Sep-15 23:33N 58°58' E 010°31'1110.9
2014-Sep-15 22:33N 59°08' E 010°37'1111.1
2014-Sep-15 21:33N 59°19' E 010°32'1 0.1
2014-Sep-15 14:28N 59°20' E 010°31'0 0.0
2014-Sep-15 09:32N 59°20' E 010°31'0 0.0
2014-Sep-15 08:33N 59°20' E 010°31'0 0.0
2014-Sep-15 07:33N 59°20' E 010°31'0 0.0
2014-Sep-15 06:33N 59°20' E 010°31'0 0.0
2014-Sep-15 05:33N 59°20' E 010°31'0 0.0
2014-Sep-15 04:33N 59°20' E 010°31'0 0.0
2014-Sep-15 03:23N 59°20' E 010°31'0 0.0
2014-Sep-15 02:32N 59°20' E 010°31'0 0.0
2014-Sep-15 01:33N 59°20' E 010°31'0 0.0
2014-Sep-15 00:33N 59°20' E 010°31'0 0.0
2014-Sep-14 23:33N 59°20' E 010°31'1 0.7
2014-Sep-14 22:27N 59°20' E 010°31'0 0.1
2014-Sep-14 21:33N 59°20' E 010°31'0 0.0
2014-Sep-14 20:33N 59°20' E 010°31'0 0.0
2014-Sep-14 19:33N 59°20' E 010°31'0 0.0
2014-Sep-14 18:33N 59°20' E 010°31'0 0.0
2014-Sep-14 17:33N 59°20' E 010°31'0 0.1
2014-Sep-14 16:33N 59°20' E 010°31'0 0.0
2014-Sep-14 13:33N 59°20' E 010°31'0 0.0
2014-Sep-14 12:30N 59°20' E 010°31'0 0.0
2014-Sep-14 11:32N 59°20' E 010°31'0 0.0
2014-Sep-14 10:32N 59°20' E 010°31'0 0.0
2014-Sep-14 09:29N 59°20' E 010°31'0 0.0
2014-Sep-14 08:23N 59°20' E 010°31'0 0.0
2014-Sep-14 07:32N 59°20' E 010°31'0 0.0
2014-Sep-14 06:32N 59°20' E 010°31'0 0.0
2014-Sep-14 05:29N 59°20' E 010°31'0 0.0
2014-Sep-14 04:26N 59°20' E 010°31'0 0.0
2014-Sep-14 03:29N 59°20' E 010°31'0 0.0
2014-Sep-14 02:23N 59°20' E 010°31'0 0.0
2014-Sep-14 01:17N 59°20' E 010°31'0 0.0
2014-Sep-13 21:32N 59°20' E 010°31'0 0.0
2014-Sep-13 20:32N 59°20' E 010°31'0 0.0
2014-Sep-13 19:26N 59°20' E 010°31'0 0.0
2014-Sep-13 18:32N 59°20' E 010°31'0 0.0
2014-Sep-13 17:32N 59°20' E 010°31'0 0.0
2014-Sep-13 16:23N 59°20' E 010°31'0 0.1
2014-Sep-13 15:29N 59°20' E 010°31'0 0.0
2014-Sep-13 12:23N 59°20' E 010°31'  

Dump ship's entire track history